CMA-CGM Fort Saint Georges — FQWZ — position and weather

sailwx.info

Track history (hours):
 
Tides and Currents Weather Stations Pressure Air Temp Water Temp Dewpoint Dewpoint Depression Visibility Wind Speed Wind Dir Waves Ship Positions

CMA-CGM Fort Saint Georges

Last reported at 2018-Jan-12 14:49 UTC. Time now 2018-Jan-20 19:14 UTC.
Position N 14°36' W 061°03'.
Warning: this ship's position is 8 days out of date.

Length 197 m; beam 30 m.

Type: Cargo ship. MMSI: 226321000.

Date/timePositionNaut miles runAvg speedWind from/ knotsBaromVisibWave heightAir tempDewpointWater temp
2018-Jan-12 14:49N 14°36' W 061°03'0 0.0
2018-Jan-12 13:28N 14°36' W 061°03'0 0.0
2018-Jan-12 12:04N 14°36' W 061°03'0 0.0
2018-Jan-12 11:52N 14°36' W 061°03'0 0.0
2018-Jan-12 11:28N 14°36' W 061°03'0 0.0
2018-Jan-12 10:55N 14°36' W 061°03'0 0.0
2018-Jan-12 10:30N 14°36' W 061°03'2 3.8
2018-Jan-12 10:00N 14°35' W 061°05'3 6.8
2018-Jan-12 09:30N 14°35' W 061°08'7 6.8
2018-Jan-12 08:26N 14°38' W 061°16'6316.0
2018-Jan-12 04:31N 15°38' W 061°34'018.6
2018-Jan-12 04:30N 15°38' W 061°34'3214.5
2018-Jan-12 02:16N 16°10' W 061°33'311.2
2018-Jan-12 02:00N 16°13' W 061°32'1 0.0
2018-Jan-11 09:38N 16°14' W 061°33'0 1.7
2018-Jan-11 09:28N 16°14' W 061°32'3 6.2
2018-Jan-11 08:58N 16°11' W 061°33'4 6.1
2018-Jan-11 08:22N 16°08' W 061°30'2 5.5
2018-Jan-11 07:56N 16°07' W 061°28'  
2018-Jan-06 09:35N 36°02' W 025°54'219.9
2018-Jan-06 09:30N 36°03' W 025°53'1020.0
2018-Jan-06 09:01N 36°08' W 025°42'1020.1
2018-Jan-06 08:31N 36°14' W 025°32'1019.7
2018-Jan-06 08:00N 36°19' W 025°21'1019.7
2018-Jan-06 07:30N 36°24' W 025°11'1019.7
2018-Jan-06 07:00N 36°30' W 025°01'1019.9
2018-Jan-06 06:31N 36°35' W 024°50'1020.0
2018-Jan-06 06:01N 36°41' W 024°40'1019.7
2018-Jan-06 05:30N 36°46' W 024°30'1019.7
2018-Jan-06 05:00N 36°52' W 024°20'1019.8
2018-Jan-06 04:30N 36°57' W 024°10'1019.5
2018-Jan-06 04:01N 37°03' W 023°60'1019.6
2018-Jan-06 03:31N 37°09' W 023°50'  
2018-Jan-03 03:23N 47°01' W 002°40'615.3
2018-Jan-03 03:00N 47°03' W 002°32'713.9
2018-Jan-03 02:30N 47°06' W 002°23'3 5.7
2018-Jan-03 02:00N 47°09' W 002°21'3 6.8
2018-Jan-03 01:30N 47°11' W 002°18'610.8
2018-Jan-03 00:55N 47°16' W 002°12'2 6.0
2018-Jan-03 00:31N 47°18' W 002°09'0 0.0
2018-Jan-02 23:55N 47°18' W 002°09'0 0.0
2018-Jan-02 23:28N 47°18' W 002°09'0 0.0
2018-Jan-02 22:58N 47°18' W 002°09'0 0.0
2018-Jan-02 22:19N 47°18' W 002°09'0 0.0
2018-Jan-02 21:58N 47°18' W 002°09'0 0.0
2018-Jan-02 21:28N 47°18' W 002°09'0 0.0
2018-Jan-02 20:52N 47°18' W 002°09'0 0.0
2018-Jan-02 19:25N 47°18' W 002°09'0 0.0
2018-Jan-02 18:55N 47°18' W 002°09'0 0.0
2018-Jan-02 18:07N 47°18' W 002°09'0 0.0
2018-Jan-02 17:46N 47°18' W 002°09'0 0.0
2018-Jan-02 17:25N 47°18' W 002°09'0 0.0
2018-Jan-02 16:58N 47°18' W 002°09'0 0.0
2018-Jan-02 16:28N 47°18' W 002°09'0 0.0
2018-Jan-02 15:58N 47°18' W 002°09'0 0.0
2018-Jan-02 15:28N 47°18' W 002°09'0 0.0
2018-Jan-02 14:55N 47°18' W 002°09'  
Track history (hours):
 
Tides and Currents Weather Stations Pressure Air Temp Water Temp Dewpoint Dewpoint Depression Visibility Wind Speed Wind Dir Waves Ship Positions

CMA-CGM Fort Saint Georges

Last reported at 2018-Jan-12 14:49 UTC. Time now 2018-Jan-20 19:14 UTC.
Position N 14°36' W 061°03'.
Warning: this ship's position is 8 days out of date.

Length 197 m; beam 30 m.

Type: Cargo ship. MMSI: 226321000.

Date/timePositionNaut miles runAvg speedWind from/ knotsBaromVisibWave heightAir tempDewpointWater temp
2018-Jan-12 14:49N 14°36' W 061°03'0 0.0
2018-Jan-12 13:28N 14°36' W 061°03'0 0.0
2018-Jan-12 12:04N 14°36' W 061°03'0 0.0
2018-Jan-12 11:52N 14°36' W 061°03'0 0.0
2018-Jan-12 11:28N 14°36' W 061°03'0 0.0
2018-Jan-12 10:55N 14°36' W 061°03'0 0.0
2018-Jan-12 10:30N 14°36' W 061°03'2 3.8
2018-Jan-12 10:00N 14°35' W 061°05'3 6.8
2018-Jan-12 09:30N 14°35' W 061°08'7 6.8
2018-Jan-12 08:26N 14°38' W 061°16'6316.0
2018-Jan-12 04:31N 15°38' W 061°34'018.6
2018-Jan-12 04:30N 15°38' W 061°34'3214.5
2018-Jan-12 02:16N 16°10' W 061°33'311.2
2018-Jan-12 02:00N 16°13' W 061°32'1 0.0
2018-Jan-11 09:38N 16°14' W 061°33'0 1.7
2018-Jan-11 09:28N 16°14' W 061°32'3 6.2
2018-Jan-11 08:58N 16°11' W 061°33'4 6.1
2018-Jan-11 08:22N 16°08' W 061°30'2 5.5
2018-Jan-11 07:56N 16°07' W 061°28'  
2018-Jan-06 09:35N 36°02' W 025°54'219.9
2018-Jan-06 09:30N 36°03' W 025°53'1020.0
2018-Jan-06 09:01N 36°08' W 025°42'1020.1
2018-Jan-06 08:31N 36°14' W 025°32'1019.7
2018-Jan-06 08:00N 36°19' W 025°21'1019.7
2018-Jan-06 07:30N 36°24' W 025°11'1019.7
2018-Jan-06 07:00N 36°30' W 025°01'1019.9
2018-Jan-06 06:31N 36°35' W 024°50'1020.0
2018-Jan-06 06:01N 36°41' W 024°40'1019.7
2018-Jan-06 05:30N 36°46' W 024°30'1019.7
2018-Jan-06 05:00N 36°52' W 024°20'1019.8
2018-Jan-06 04:30N 36°57' W 024°10'1019.5
2018-Jan-06 04:01N 37°03' W 023°60'1019.6
2018-Jan-06 03:31N 37°09' W 023°50'  
2018-Jan-03 03:23N 47°01' W 002°40'615.3
2018-Jan-03 03:00N 47°03' W 002°32'713.9
2018-Jan-03 02:30N 47°06' W 002°23'3 5.7
2018-Jan-03 02:00N 47°09' W 002°21'3 6.8
2018-Jan-03 01:30N 47°11' W 002°18'610.8
2018-Jan-03 00:55N 47°16' W 002°12'2 6.0
2018-Jan-03 00:31N 47°18' W 002°09'0 0.0
2018-Jan-02 23:55N 47°18' W 002°09'0 0.0
2018-Jan-02 23:28N 47°18' W 002°09'0 0.0
2018-Jan-02 22:58N 47°18' W 002°09'0 0.0
2018-Jan-02 22:19N 47°18' W 002°09'0 0.0
2018-Jan-02 21:58N 47°18' W 002°09'0 0.0
2018-Jan-02 21:28N 47°18' W 002°09'0 0.0
2018-Jan-02 20:52N 47°18' W 002°09'0 0.0
2018-Jan-02 19:25N 47°18' W 002°09'0 0.0
2018-Jan-02 18:55N 47°18' W 002°09'0 0.0
2018-Jan-02 18:07N 47°18' W 002°09'0 0.0
2018-Jan-02 17:46N 47°18' W 002°09'0 0.0
2018-Jan-02 17:25N 47°18' W 002°09'0 0.0
2018-Jan-02 16:58N 47°18' W 002°09'0 0.0
2018-Jan-02 16:28N 47°18' W 002°09'0 0.0
2018-Jan-02 15:58N 47°18' W 002°09'0 0.0
2018-Jan-02 15:28N 47°18' W 002°09'0 0.0
2018-Jan-02 14:55N 47°18' W 002°09'  

Dump ship's entire track history